Time;durP1;ratioP1;P1;durP2;ratioP2;P2;SDS_P1;SDS_P2;PMS_P1;PMS_P2;Temp;Humidity;BMP_temperature;BMP_pressure;BME280_temperature;BME280_humidity;BME280_pressure;Samples;Min_cycle;Max_cycle;Signal;HPM_P1;HPM_P2
2022/11/01 07:01:24;;;;;;;22.95;3.55;;;;;;;2.87;61.90;99592.53;4873209;29;20182;-86
2022/11/01 07:03:51;;;;;;;24.33;3.53;;;;;;;2.88;62.67;99572.56;4894266;29;20048;-87
2022/11/01 07:06:18;;;;;;;11.15;3.80;;;;;;;2.75;61.08;99538.69;4881216;29;20117;-85
2022/11/01 07:08:44;;;;;;;27.80;3.53;;;;;;;3.02;61.47;99576.47;4897892;29;20041;-88
2022/11/01 07:11:12;;;;;;;30.67;5.22;;;;;;;3.08;61.30;99573.78;4893635;29;20060;-85
2022/11/01 07:13:38;;;;;;;13.80;2.83;;;;;;;2.90;61.60;99551.50;4898872;29;20048;-86
2022/11/01 07:16:06;;;;;;;16.08;3.50;;;;;;;3.08;61.42;99558.44;4906310;29;20410;-87
2022/11/01 07:18:33;;;;;;;11.77;4.07;;;;;;;3.16;61.71;99557.13;4880710;29;20055;-86
2022/11/01 07:21:02;;;;;;;14.57;2.97;;;;;;;3.23;60.56;99585.53;4894948;29;20037;-87
2022/11/01 07:23:29;;;;;;;66.75;6.18;;;;;;;3.06;61.29;99588.38;4877897;29;20502;-87
2022/11/01 07:25:55;;;;;;;80.50;7.95;;;;;;;2.98;61.66;99566.41;4893714;29;20045;-88
2022/11/01 07:28:21;;;;;;;22.38;4.15;;;;;;;2.90;61.60;99551.50;4887077;29;20062;-89
2022/11/01 07:30:52;;;;;;;91.47;8.13;;;;;;;3.14;61.71;99580.88;4898839;29;20044;-87
2022/11/01 07:33:19;;;;;;;38.65;3.67;;;;;;;3.25;61.66;99588.00;4898068;29;20055;-87
2022/11/01 07:35:46;;;;;;;18.75;5.35;;;;;;;3.47;61.74;99582.47;4898088;29;20425;-85
2022/11/01 07:38:15;;;;;;;54.38;5.55;;;;;;;3.23;60.93;99552.31;4926500;29;20100;-90
2022/11/01 07:40:43;;;;;;;22.05;3.25;;;;;;;2.98;60.92;99542.13;4899156;29;20569;-89
2022/11/01 07:43:09;;;;;;;81.07;7.25;;;;;;;3.09;60.79;99559.25;4898773;29;20049;-91
2022/11/01 07:45:35;;;;;;;28.25;4.32;;;;;;;3.25;61.12;99590.72;4913264;29;20036;-88
2022/11/01 07:48:09;;;;;;;50.30;4.30;;;;;;;3.24;61.39;99586.34;4881050;29;20047;-90
2022/11/01 07:50:36;;;;;;;20.58;3.33;;;;;;;3.27;61.49;99586.66;4910923;29;20208;-88
2022/11/01 07:53:05;;;;;;;7.80;2.65;;;;;;;3.26;61.75;99559.91;4912783;29;20139;-88
2022/11/01 07:55:32;;;;;;;14.10;2.97;;;;;;;3.45;61.40;99571.94;4896186;29;20062;-88
2022/11/01 07:57:58;;;;;;;18.92;2.60;;;;;;;3.46;59.97;99556.53;4900683;29;20081;-87
2022/11/01 08:00:24;;;;;;;31.67;4.10;;;;;;;3.90;59.60;99591.41;4905393;29;20048;-87
2022/11/01 08:02:51;;;;;;;18.60;2.97;;;;;;;3.89;59.36;99581.66;4895484;29;20043;-88
2022/11/01 08:05:18;;;;;;;17.23;3.42;;;;;;;3.90;59.82;99573.28;4897334;29;20647;-89
2022/11/01 08:07:45;;;;;;;11.98;2.95;;;;;;;4.04;59.12;99589.88;4865939;29;20044;-85
2022/11/01 08:10:11;;;;;;;15.50;3.28;;;;;;;3.81;58.64;99569.47;4910136;29;20100;-88
2022/11/01 08:12:38;;;;;;;10.73;3.08;;;;;;;3.94;58.71;99597.91;4888236;29;20041;-89
2022/11/01 08:15:04;;;;;;;32.58;6.15;;;;;;;3.81;59.24;99569.47;4897437;29;20054;-87
2022/11/01 08:17:33;;;;;;;17.83;3.33;;;;;;;3.83;58.74;99572.72;4896684;29;20104;-91
2022/11/01 08:19:59;;;;;;;24.05;3.22;;;;;;;3.70;58.93;99584.78;4896440;29;20044;-89
2022/11/01 08:22:25;;;;;;;11.45;3.30;;;;;;;3.59;59.76;99571.50;4870503;29;20435;-88
2022/11/01 08:24:51;;;;;;;14.13;3.42;;;;;;;3.64;59.46;99572.34;4884758;29;20073;-90
2022/11/01 08:27:17;;;;;;;17.20;2.83;;;;;;;3.68;59.80;99569.94;4896102;29;20052;-91
2022/11/01 08:29:43;;;;;;;22.25;4.15;;;;;;;3.86;58.73;99576.78;4879336;29;20037;-92
2022/11/01 08:32:12;;;;;;;11.63;3.03;;;;;;;3.87;58.28;99578.41;4899592;29;20071;-90
2022/11/01 08:34:39;;;;;;;15.35;2.58;;;;;;;3.92;58.72;99563.03;4893522;29;20555;-89
2022/11/01 08:37:06;;;;;;;6.85;3.00;;;;;;;3.69;58.59;99566.94;4894681;29;20503;-88
2022/11/01 08:39:32;;;;;;;19.25;3.40;;;;;;;3.58;58.89;99524.72;4896376;29;20036;-89
2022/11/01 08:41:59;;;;;;;13.73;3.08;;;;;;;3.92;58.45;99565.72;4898676;29;20157;-90
2022/11/01 08:44:25;;;;;;;10.00;2.47;;;;;;;4.20;57.83;99588.84;4899273;29;20538;-89
2022/11/01 08:46:53;;;;;;;17.95;3.33;;;;;;;4.16;57.74;99592.34;4882171;29;20048;-89
2022/11/01 08:49:20;;;;;;;12.40;3.05;;;;;;;3.93;57.43;99586.28;4912259;29;20028;-90
2022/11/01 08:51:46;;;;;;;5.97;2.50;;;;;;;3.65;58.28;99549.63;4910390;29;20113;-89
2022/11/01 08:55:14;;;;;;;7.95;2.60;;;;;;;3.70;57.83;99522.63;4899160;29;20112;-89
2022/11/01 08:57:34;;;;;;;22.00;3.15;;;;;;;4.07;58.39;99581.22;4870762;29;20049;-88
2022/11/01 09:00:01;;;;;;;11.45;2.55;;;;;;;4.10;57.28;99596.09;4880430;29;20049;-86
2022/11/01 09:02:29;;;;;;;5.45;2.88;;;;;;;3.71;57.80;99562.13;4861957;29;20419;-84
2022/11/01 09:05:01;;;;;;;5.90;2.33;;;;;;;3.64;58.29;99580.47;4888670;29;20049;-85
2022/11/01 09:07:28;;;;;;;40.83;3.90;;;;;;;3.86;58.63;99598.41;4896284;29;20029;-85
2022/11/01 09:09:54;;;;;;;23.92;4.55;;;;;;;3.96;57.92;99593.06;4891504;29;20562;-84
2022/11/01 09:12:21;;;;;;;15.07;4.78;;;;;;;4.23;58.13;99603.75;4878528;29;20137;-86
2022/11/01 09:14:47;;;;;;;22.38;3.65;;;;;;;4.05;57.48;99567.16;4873776;29;20068;-89
2022/11/01 09:17:14;;;;;;;17.33;3.20;;;;;;;4.21;57.33;99593.19;4892503;29;20055;-85
2022/11/01 09:19:40;;;;;;;6.03;2.40;;;;;;;4.07;58.08;99600.13;4905908;29;20036;-86
2022/11/01 09:22:07;;;;;;;12.05;3.15;;;;;;;3.81;57.89;99536.19;4933811;29;20051;-85
2022/11/01 09:24:34;;;;;;;18.80;2.95;;;;;;;4.07;58.89;99578.50;4910775;29;20041;-85
2022/11/01 09:27:01;;;;;;;13.57;3.15;;;;;;;4.09;58.50;99562.03;4932663;29;20076;-86
2022/11/01 09:29:28;;;;;;;9.45;3.45;;;;;;;4.32;57.57;99575.09;4903682;29;20044;-85
2022/11/01 09:31:54;;;;;;;10.80;2.80;;;;;;;4.28;57.97;99565.09;4898482;29;20089;-85
2022/11/01 09:34:21;;;;;;;14.52;4.45;;;;;;;4.40;58.08;99552.09;4903671;29;20040;-84
2022/11/01 09:36:48;;;;;;;18.42;2.58;;;;;;;4.67;57.37;99570.88;4902961;29;20099;-85
2022/11/01 09:39:16;;;;;;;13.33;2.93;;;;;;;4.18;56.92;99555.03;4902497;29;20116;-90
2022/11/01 09:41:47;;;;;;;4.80;2.53;;;;;;;3.86;57.36;99544.34;4907656;29;20063;-86
2022/11/01 09:44:20;;;;;;;12.60;2.72;;;;;;;3.95;57.89;99597.66;4902073;29;20049;-86
2022/11/01 09:46:52;;;;;;;14.05;5.50;;;;;;;3.70;57.62;99557.75;4898192;29;20494;-85
2022/11/01 09:49:22;;;;;;;17.05;5.03;;;;;;;3.84;57.37;99558.13;4885102;29;20055;-85
2022/11/01 09:51:49;;;;;;;11.57;4.32;;;;;;;4.30;56.85;99590.78;4898698;29;20048;-86
2022/11/01 09:54:19;;;;;;;12.00;5.38;;;;;;;4.11;56.92;99551.75;4897946;29;20043;-89
2022/11/01 09:56:52;;;;;;;24.48;6.03;;;;;;;4.61;57.45;99590.91;4880246;29;20041;-88
2022/11/01 09:59:40;;;;;;;13.30;3.08;;;;;;;4.58;55.62;99588.72;4887426;29;20063;-87
2022/11/01 10:02:20;;;;;;;11.35;2.90;;;;;;;4.35;56.28;99585.41;4899151;29;20056;-88
2022/11/01 10:05:45;;;;;;;9.25;2.78;;;;;;;4.17;57.67;99577.72;4875328;29;20105;-89
2022/11/01 10:08:34;;;;;;;21.98;5.45;;;;;;;4.22;57.05;99581.28;4856816;29;20041;-86
2022/11/01 10:11:15;;;;;;;15.27;4.60;;;;;;;4.22;56.90;99584.00;4908936;29;20533;-86
2022/11/01 10:13:55;;;;;;;13.30;4.13;;;;;;;4.03;56.89;99536.03;4903363;29;20048;-89
2022/11/01 10:16:24;;;;;;;8.13;2.83;;;;;;;4.09;57.12;99587.19;4913309;29;20479;-90
2022/11/01 10:19:13;;;;;;;11.48;3.30;;;;;;;3.78;56.92;99544.84;4881573;29;20136;-90
2022/11/01 10:21:43;;;;;;;10.23;2.90;;;;;;;4.10;56.86;99580.69;4878853;29;20036;-90
2022/11/01 10:24:24;;;;;;;15.95;3.75;;;;;;;4.21;56.63;99585.06;4898522;29;20072;-91
2022/11/01 10:26:55;;;;;;;9.00;3.97;;;;;;;4.30;56.45;99558.31;4897832;29;20045;-89
2022/11/01 10:29:40;;;;;;;13.02;4.00;;;;;;;4.55;56.53;99589.25;4872723;29;20380;-90
2022/11/01 10:32:22;;;;;;;8.57;3.30;;;;;;;4.27;55.60;99571.56;4871865;29;20079;-89
2022/11/01 10:34:50;;;;;;;13.45;3.60;;;;;;;4.40;56.77;99571.91;4900500;29;20052;-89
2022/11/01 10:37:54;;;;;;;17.10;2.90;;;;;;;4.41;55.70;99565.41;4898521;29;20060;-86
2022/11/01 10:40:29;;;;;;;27.98;6.70;;;;;;;4.34;56.87;99572.13;4895361;29;20029;-89
2022/11/01 10:42:55;;;;;;;9.88;2.85;;;;;;;4.54;56.54;99583.03;4900060;29;20586;-90
2022/11/01 10:45:22;;;;;;;17.50;3.60;;;;;;;4.52;56.55;99590.59;4914759;29;20075;-91
2022/11/01 10:47:56;;;;;;;17.92;3.55;;;;;;;4.46;55.54;99570.00;4909572;29;20453;-89
2022/11/01 10:50:29;;;;;;;16.02;3.20;;;;;;;4.22;56.36;99542.59;4897281;29;20120;-90
2022/11/01 10:53:11;;;;;;;29.55;4.60;;;;;;;4.60;56.21;99564.88;4899613;29;20068;-90
2022/11/01 10:55:50;;;;;;;12.30;3.03;;;;;;;4.54;55.55;99558.66;4891807;29;20045;-86
2022/11/01 10:58:32;;;;;;;9.45;2.80;;;;;;;4.69;54.79;99583.03;4896721;29;20051;-86
2022/11/01 11:01:01;;;;;;;13.15;3.28;;;;;;;4.47;55.90;99550.00;4893620;29;20044;-88
2022/11/01 11:03:32;;;;;;;10.85;3.05;;;;;;;4.84;55.31;99598.53;4891320;29;20048;-91
2022/11/01 11:06:06;;;;;;;9.48;3.00;;;;;;;4.78;54.91;99585.25;4898105;29;20428;-92
2022/11/01 11:08:32;;;;;;;11.27;3.05;;;;;;;4.69;55.29;99584.94;4909926;29;20045;-85
2022/11/01 11:11:09;;;;;;;11.68;3.28;;;;;;;4.65;56.59;99598.22;4906270;29;20100;-88
2022/11/01 11:13:36;;;;;;;11.48;3.25;;;;;;;4.47;55.66;99572.44;4895346;29;20051;-86
2022/11/01 11:16:04;;;;;;;23.15;4.20;;;;;;;4.75;55.52;99588.50;4897774;29;20056;-87
2022/11/01 11:18:34;;;;;;;8.18;3.40;;;;;;;4.62;54.10;99576.28;4907386;29;20040;-88
2022/11/01 11:21:03;;;;;;;10.70;3.63;;;;;;;4.46;54.81;99584.34;4892882;29;20071;-88
2022/11/01 11:23:35;;;;;;;8.30;4.03;;;;;;;4.06;54.77;99551.72;4893883;29;20293;-86
2022/11/01 11:26:15;;;;;;;13.02;3.80;;;;;;;4.28;55.87;99592.16;4885878;29;20051;-84
2022/11/01 11:28:46;;;;;;;17.70;3.60;;;;;;;4.45;56.18;99606.28;4889687;29;20081;-87
2022/11/01 11:31:33;;;;;;;9.27;3.63;;;;;;;4.40;56.75;99598.97;4911151;29;20574;-84
2022/11/01 11:34:15;;;;;;;;;;;;;;;4.37;55.92;99604.91;4902313;29;20127;-88
2022/11/01 11:36:46;;;;;;;12.48;3.50;;;;;;;4.28;56.68;99601.06;4901013;29;19958;-88
2022/11/01 11:39:33;;;;;;;16.63;3.53;;;;;;;4.05;56.76;99605.03;4902108;29;20044;-87
2022/11/01 11:42:23;;;;;;;11.63;3.90;;;;;;;4.03;57.40;99590.13;4901176;29;20044;-88
2022/11/01 11:44:53;;;;;;;16.95;3.85;;;;;;;4.21;57.58;99600.50;4903106;29;20044;-89
2022/11/01 11:47:26;;;;;;;11.25;3.78;;;;;;;3.96;56.77;99595.75;4884741;29;20045;-88
2022/11/01 11:49:57;;;;;;;10.15;3.47;;;;;;;3.78;57.15;99575.41;4902166;29;20080;-87
2022/11/01 11:52:32;;;;;;;12.95;3.38;;;;;;;3.55;57.21;99546.88;4871044;29;20048;-90
2022/11/01 11:54:59;;;;;;;8.02;3.42;;;;;;;3.37;57.40;99545.38;4897157;29;20076;-89
2022/11/01 11:57:29;;;;;;;21.07;3.70;;;;;;;3.56;57.48;99556.59;4900281;29;20426;-87
2022/11/01 11:59:59;;;;;;;19.98;3.55;;;;;;;3.72;57.81;99590.78;4885209;29;20040;-91
2022/11/01 12:02:38;;;;;;;12.95;3.42;;;;;;;3.91;57.56;99606.56;4886486;29;20059;-88
2022/11/01 12:05:15;;;;;;;19.02;4.70;;;;;;;3.96;57.48;99595.75;4899201;29;20131;-87
2022/11/01 12:07:47;;;;;;;11.77;3.88;;;;;;;3.97;57.37;99603.63;4887852;29;20040;-87
2022/11/01 12:10:30;;;;;;;7.70;3.00;;;;;;;4.00;56.78;99603.09;4901960;29;20028;-90
2022/11/01 12:12:57;;;;;;;6.40;3.15;;;;;;;3.74;57.16;99575.09;4905679;29;20040;-89
2022/11/01 12:15:27;;;;;;;14.73;3.47;;;;;;;3.76;56.82;99604.56;4891861;29;20094;-90
2022/11/01 12:17:55;;;;;;;12.15;3.53;;;;;;;3.55;57.11;99586.59;4900690;29;20071;-90
2022/11/01 12:20:23;;;;;;;;;;;;;;;3.67;57.47;99611.53;4887245;29;20087;-88
2022/11/01 12:23:06;;;;;;;13.30;3.20;;;;;;;3.52;57.66;99612.25;4905020;29;19979;-90
2022/11/01 12:25:35;;;;;;;14.73;3.70;;;;;;;3.26;57.42;99541.81;4892059;29;20048;-90
2022/11/01 12:28:19;;;;;;;14.45;3.38;;;;;;;3.63;57.54;99607.75;4864577;29;20044;-90
2022/11/01 12:30:50;;;;;;;9.70;3.60;;;;;;;3.34;57.98;99591.84;4877083;29;20059;-88
2022/11/01 12:34:04;;;;;;;19.55;5.20;;;;;;;3.60;58.18;99597.44;4893073;29;20049;-87
2022/11/01 12:36:36;;;;;;;14.68;3.70;;;;;;;3.55;57.77;99586.59;4889595;29;20044;-88
2022/11/01 12:39:17;;;;;;;52.72;6.68;;;;;;;3.74;57.93;99615.66;4884434;29;20032;-87
2022/11/01 12:41:50;;;;;;;21.17;4.57;;;;;;;3.82;57.59;99627.88;4916504;29;20059;-89
2022/11/01 12:44:22;;;;;;;21.70;4.05;;;;;;;3.51;58.08;99580.91;4907730;29;20032;-88
2022/11/01 12:46:56;;;;;;;12.20;3.42;;;;;;;3.69;58.44;99595.88;4918299;29;20051;-89
2022/11/01 12:49:48;;;;;;;10.20;4.00;;;;;;;3.85;58.05;99597.59;4935299;29;20040;-88
2022/11/01 12:52:32;;;;;;;37.97;4.28;;;;;;;3.92;57.03;99614.41;4919803;29;20048;-89
2022/11/01 12:55:04;;;;;;;125.50;11.27;;;;;;;3.65;57.84;99598.31;4904508;29;20425;-89
2022/11/01 12:57:31;;;;;;;63.05;5.57;;;;;;;3.88;57.98;99623.31;4903335;29;20047;-90
2022/11/01 12:59:59;;;;;;;18.60;3.72;;;;;;;3.70;57.79;99622.66;4886034;29;20040;-89
2022/11/01 13:02:50;;;;;;;;;;;;;;;3.73;58.26;99622.13;4887934;29;20115;-90
2022/11/01 13:05:47;;;;;;;20.33;3.50;;;;;;;3.67;58.16;99617.75;4903251;29;20021;-88
2022/11/01 13:08:44;;;;;;;6.95;2.47;;;;;;;3.44;58.21;99616.22;4891133;29;20414;-89
2022/11/01 13:11:28;;;;;;;22.70;3.45;;;;;;;3.53;60.07;99622.00;4900541;29;20057;-89
2022/11/01 13:14:54;;;;;;;22.20;3.47;;;;;;;3.45;58.19;99598.97;4902391;29;20041;-92
2022/11/01 13:17:36;;;;;;;8.85;3.08;;;;;;;3.53;58.31;99619.28;4828223;29;20042;-88
2022/11/01 13:20:45;;;;;;;13.77;3.08;;;;;;;3.55;58.02;99613.63;4879969;29;20064;-91
2022/11/01 13:23:25;;;;;;;15.60;2.60;;;;;;;3.23;58.26;99600.94;4875254;29;20075;-88
2022/11/01 13:26:11;;;;;;;19.15;3.10;;;;;;;3.06;58.63;99580.28;4866232;29;20101;-86
2022/11/01 13:29:22;;;;;;;45.33;4.20;;;;;;;3.49;58.37;99616.28;4891876;29;20043;-87
2022/11/01 13:32:12;;;;;;;38.63;5.03;;;;;;;3.49;58.12;99619.00;4877553;29;20040;-88
2022/11/01 13:34:48;;;;;;;12.57;2.88;;;;;;;3.26;58.41;99614.75;4883823;29;20049;-89
2022/11/01 13:37:42;;;;;;;67.55;6.40;;;;;;;3.26;58.59;99617.47;4915307;29;20044;-87
2022/11/01 13:40:34;;;;;;;16.40;3.67;;;;;;;3.43;58.76;99616.50;4901017;29;20051;-87
2022/11/01 13:43:18;;;;;;;17.15;3.13;;;;;;;3.46;58.90;99611.41;4921072;29;20048;-87
2022/11/01 13:46:15;;;;;;;15.95;3.78;;;;;;;3.52;58.98;99614.97;4888127;29;20514;-87
2022/11/01 13:49:01;;;;;;;17.20;3.75;;;;;;;3.62;58.36;99611.53;4917720;29;20152;-87
2022/11/01 13:51:42;;;;;;;16.08;3.90;;;;;;;3.48;58.25;99616.56;4917584;29;20171;-86
2022/11/01 13:54:31;;;;;;;18.20;3.50;;;;;;;3.52;58.42;99602.25;4901405;29;20426;-85
2022/11/01 13:57:08;;;;;;;15.32;3.45;;;;;;;3.54;58.18;99602.00;4918939;29;20075;-88
2022/11/01 13:59:43;;;;;;;15.02;3.33;;;;;;;3.59;58.42;99603.94;4884730;29;20616;-85
2022/11/01 14:02:24;;;;;;;11.20;3.70;;;;;;;3.60;58.12;99606.34;4885307;29;20056;-86
2022/11/01 14:05:07;;;;;;;14.10;3.92;;;;;;;3.59;57.97;99593.94;4918468;29;20498;-87
2022/11/01 14:07:38;;;;;;;19.65;4.55;;;;;;;3.47;58.33;99602.22;4886070;29;20059;-84
2022/11/01 14:10:31;;;;;;;18.75;3.65;;;;;;;3.40;58.57;99604.31;4913957;29;20048;-87
2022/11/01 14:13:06;;;;;;;10.93;3.40;;;;;;;3.57;58.79;99598.75;4899405;29;20044;-84
2022/11/01 14:15:38;;;;;;;10.85;3.53;;;;;;;3.49;58.31;99594.66;4901108;29;20075;-84
2022/11/01 14:18:07;;;;;;;44.40;5.38;;;;;;;3.50;58.64;99593.59;4899531;29;20076;-87
2022/11/01 14:20:54;;;;;;;29.67;4.93;;;;;;;3.50;58.71;99585.47;4885292;29;20502;-87
2022/11/01 14:23:27;;;;;;;18.83;4.25;;;;;;;3.55;59.54;99589.31;4853893;29;20071;-86
2022/11/01 14:26:19;;;;;;;17.33;3.95;;;;;;;3.63;58.09;99602.31;4861850;29;20451;-87
2022/11/01 14:28:48;;;;;;;11.88;3.40;;;;;;;3.53;58.69;99581.44;4878268;29;20711;-85
2022/11/01 14:31:18;;;;;;;12.20;3.85;;;;;;;3.56;58.47;99602.56;4866241;29;20059;-86
2022/11/01 14:33:48;;;;;;;15.98;4.18;;;;;;;3.46;58.80;99610.59;4878280;29;20149;-86
2022/11/01 14:36:18;;;;;;;13.45;4.30;;;;;;;3.32;60.05;99582.38;4861103;29;20037;-86
2022/11/01 14:39:20;;;;;;;11.40;4.22;;;;;;;3.60;59.95;99606.34;4891956;29;20101;-86
2022/11/01 14:41:48;;;;;;;10.82;4.00;;;;;;;3.44;58.45;99580.28;4865116;29;20052;-86
2022/11/01 14:44:44;;;;;;;16.25;4.07;;;;;;;3.44;59.25;99601.91;4896948;29;20068;-86
2022/11/01 14:47:37;;;;;;;9.65;4.00;;;;;;;3.58;59.01;99596.91;4895438;29;20461;-85
2022/11/01 14:50:27;;;;;;;35.33;6.20;;;;;;;3.67;59.62;99595.31;4895903;29;20489;-85
2022/11/01 14:53:02;;;;;;;14.32;3.92;;;;;;;3.59;58.85;99566.91;4890735;29;20108;-85
2022/11/01 14:55:35;;;;;;;14.13;4.10;;;;;;;3.54;59.42;99566.84;4910323;29;20047;-85
2022/11/01 14:58:08;;;;;;;9.57;3.83;;;;;;;3.80;58.34;99597.56;4894636;29;20131;-83
2022/11/01 15:00:34;;;;;;;9.15;4.07;;;;;;;3.71;58.74;99586.44;4895525;29;20070;-86
2022/11/01 15:03:01;;;;;;;20.27;5.17;;;;;;;3.71;58.96;99575.63;4894525;29;20532;-86
2022/11/01 15:05:27;;;;;;;11.07;3.70;;;;;;;3.82;59.40;99583.81;4898248;29;20063;-85
2022/11/01 15:08:00;;;;;;;15.50;4.05;;;;;;;3.67;58.42;99582.63;4897534;29;20064;-87
2022/11/01 15:10:26;;;;;;;10.88;4.07;;;;;;;3.55;59.25;99576.59;4877625;29;20056;-85
2022/11/01 15:12:57;;;;;;;10.77;4.30;;;;;;;3.27;59.14;99553.44;4884513;29;20048;-84
2022/11/01 15:15:30;;;;;;;14.15;4.43;;;;;;;3.52;59.17;99588.75;4895571;29;20131;-86
2022/11/01 15:17:59;;;;;;;8.32;4.50;;;;;;;3.50;59.35;99579.25;4892840;29;20044;-87
2022/11/01 15:20:32;;;;;;;27.73;4.47;;;;;;;3.45;59.50;99571.13;4890673;29;20037;-85
2022/11/01 15:23:02;;;;;;;43.50;5.72;;;;;;;3.46;59.61;99578.16;4879818;29;20384;-85
2022/11/01 15:25:28;;;;;;;27.95;4.45;;;;;;;3.63;59.54;99592.31;4895340;29;20055;-86
2022/11/01 15:27:56;;;;;;;36.75;5.20;;;;;;;3.50;59.26;99563.84;4887071;29;20045;-87
2022/11/01 15:30:29;;;;;;;21.00;4.18;;;;;;;3.53;58.75;99582.25;4860021;29;20418;-84
2022/11/01 15:33:18;;;;;;;27.23;5.95;;;;;;;3.62;59.00;99579.09;4877111;29;20037;-86
2022/11/01 15:35:58;;;;;;;53.08;7.15;;;;;;;3.67;58.78;99585.31;4893235;29;20040;-87
2022/11/01 15:38:26;;;;;;;18.42;5.47;;;;;;;3.64;59.00;99601.25;4879093;29;20107;-85
2022/11/01 15:40:52;;;;;;;47.55;8.52;;;;;;;3.47;59.19;99577.06;4876526;29;20053;-85
2022/11/01 15:43:26;;;;;;;34.73;5.27;;;;;;;3.60;59.30;99605.53;4878853;29;20040;-84
2022/11/01 15:45:55;;;;;;;10.18;4.50;;;;;;;3.64;58.96;99603.94;4890434;29;20298;-85
2022/11/01 15:48:32;;;;;;;12.90;3.63;;;;;;;3.41;59.39;99613.25;4876576;29;20077;-84
2022/11/01 15:51:08;;;;;;;20.35;4.82;;;;;;;3.46;60.00;99605.19;4876269;29;20538;-85
2022/11/01 15:53:38;;;;;;;10.20;3.65;;;;;;;3.46;59.52;99603.28;4890517;29;20047;-86
2022/11/01 15:56:10;;;;;;;10.73;3.58;;;;;;;3.43;59.78;99589.47;4887204;29;20068;-85
2022/11/01 15:58:53;;;;;;;13.80;4.30;;;;;;;3.59;60.12;99593.13;4895850;29;20506;-85
2022/11/01 16:01:22;;;;;;;26.10;4.90;;;;;;;3.45;59.71;99568.44;4892662;29;20052;-88
2022/11/01 16:03:54;;;;;;;11.18;3.95;;;;;;;3.38;59.63;99574.06;4879618;29;20045;-87
2022/11/01 16:06:43;;;;;;;17.55;4.07;;;;;;;3.67;60.11;99603.44;4864096;29;20606;-89
2022/11/01 16:09:52;;;;;;;9.40;4.38;;;;;;;3.66;59.79;99581.00;4895129;29;20056;-88
2022/11/01 16:12:24;;;;;;;20.17;4.30;;;;;;;3.74;59.96;99596.75;4906432;29;20316;-90
2022/11/01 16:14:52;;;;;;;17.73;4.63;;;;;;;3.58;59.85;99567.16;4889241;29;20038;-91
2022/11/01 16:17:24;;;;;;;14.77;4.03;;;;;;;3.69;59.27;99571.56;4896752;29;20133;-87
2022/11/01 16:19:51;;;;;;;13.00;3.92;;;;;;;3.78;58.95;99580.81;4924661;29;20033;-88
2022/11/01 16:22:40;;;;;;;17.13;4.35;;;;;;;3.80;59.39;99594.84;4905158;29;20061;-88
2022/11/01 16:25:08;;;;;;;12.98;4.10;;;;;;;3.73;59.48;99595.09;4898064;29;20037;-87
2022/11/01 16:28:09;;;;;;;6.47;3.72;;;;;;;3.62;59.78;99592.59;4886801;29;20043;-87
2022/11/01 16:30:39;;;;;;;19.90;4.47;;;;;;;3.63;59.85;99596.91;4895811;29;20040;-88
2022/11/01 16:33:22;;;;;;;19.00;4.35;;;;;;;3.51;60.56;99570.91;4898852;29;20037;-88
2022/11/01 16:35:51;;;;;;;18.27;3.75;;;;;;;3.75;59.96;99584.84;4928868;29;20109;-88
2022/11/01 16:38:35;;;;;;;10.57;3.97;;;;;;;3.86;59.47;99593.00;4899701;29;20045;-87
2022/11/01 16:41:19;;;;;;;11.25;4.13;;;;;;;3.73;60.13;99568.06;4929135;29;20048;-87
2022/11/01 16:43:51;;;;;;;12.57;3.80;;;;;;;3.83;59.69;99566.50;4928467;29;20229;-85
2022/11/01 16:46:19;;;;;;;13.50;4.45;;;;;;;3.99;59.97;99582.53;4912135;29;20053;-87
2022/11/01 16:48:50;;;;;;;12.13;3.85;;;;;;;3.95;59.35;99581.44;4899411;29;20053;-86
2022/11/01 16:51:17;;;;;;;27.80;4.63;;;;;;;3.90;59.53;99561.66;4894306;29;20041;-87
2022/11/01 16:53:43;;;;;;;12.65;3.53;;;;;;;3.86;59.46;99545.16;4924618;29;20037;-86
2022/11/01 16:56:25;;;;;;;20.55;3.97;;;;;;;3.93;59.59;99563.84;4891749;29;20044;-85
2022/11/01 16:59:27;;;;;;;16.02;3.53;;;;;;;3.83;59.65;99567.28;4879166;29;20068;-87
2022/11/01 17:01:56;;;;;;;8.60;3.40;;;;;;;3.91;60.05;99582.22;4859774;29;20527;-85
2022/11/01 17:04:23;;;;;;;16.65;3.67;;;;;;;3.92;60.02;99581.16;4893055;29;20048;-86
2022/11/01 17:06:51;;;;;;;9.65;3.25;;;;;;;3.81;60.08;99555.09;4877524;29;20442;-86
2022/11/01 17:09:21;;;;;;;12.88;3.67;;;;;;;3.85;60.03;99561.66;4901481;29;20088;-85
2022/11/01 17:11:49;;;;;;;12.07;3.60;;;;;;;3.92;60.45;99568.44;4886809;29;20514;-87
2022/11/01 17:14:17;;;;;;;29.60;3.70;;;;;;;3.96;60.52;99563.31;4904716;29;20128;-86
2022/11/01 17:16:46;;;;;;;12.18;3.20;;;;;;;4.02;59.63;99553.34;4889394;29;20585;-86
2022/11/01 17:19:33;;;;;;;11.60;3.30;;;;;;;4.04;59.44;99551.16;4888272;29;20160;-85
2022/11/01 17:22:05;;;;;;;11.27;3.35;;;;;;;4.19;59.25;99581.81;4869506;29;20059;-85
2022/11/01 17:24:34;;;;;;;23.40;3.45;;;;;;;4.08;59.48;99544.97;4871243;29;20053;-85
2022/11/01 17:27:04;;;;;;;15.60;3.72;;;;;;;4.04;59.31;99534.94;4873326;29;20063;-86
2022/11/01 17:29:32;;;;;;;17.00;4.07;;;;;;;4.19;59.61;99556.66;4874242;29;20037;-87
2022/11/01 17:31:59;;;;;;;10.55;3.10;;;;;;;3.92;59.22;99511.63;4890574;29;20523;-85
2022/11/01 17:34:27;;;;;;;;;;;;;;;4.22;59.70;99577.78;4879665;29;20032;-86
2022/11/01 17:36:54;;;;;;;12.13;4.13;;;;;;;4.26;59.30;99576.16;4897652;29;19923;-87
2022/11/01 17:39:27;;;;;;;11.35;3.60;;;;;;;4.03;59.36;99534.13;4866642;29;20056;-86
2022/11/01 17:41:54;;;;;;;13.98;3.53;;;;;;;4.15;59.82;99540.13;4881152;29;20108;-86
2022/11/01 17:44:23;;;;;;;12.05;4.10;;;;;;;4.25;59.07;99544.78;4899174;29;20052;-87
2022/11/01 17:46:49;;;;;;;12.43;3.47;;;;;;;4.32;59.30;99548.03;4896323;29;20499;-84
2022/11/01 17:49:20;;;;;;;21.85;3.80;;;;;;;4.38;59.10;99555.09;4895786;29;20096;-86
2022/11/01 17:51:46;;;;;;;14.25;4.18;;;;;;;4.37;59.22;99567.00;4896947;29;20559;-86
2022/11/01 17:54:12;;;;;;;16.60;4.72;;;;;;;4.23;60.15;99549.63;4895667;29;20502;-85
2022/11/01 17:56:40;;;;;;;22.73;4.72;;;;;;;4.48;60.34;99576.78;4896808;29;20463;-85
2022/11/01 17:59:07;;;;;;;16.07;4.40;;;;;;;4.32;60.32;99545.31;4879586;29;20041;-85
2022/11/01 18:01:37;;;;;;;;;;;;;;;4.58;59.98;99573.28;4896008;29;20495;-86
2022/11/01 18:04:04;;;;;;;7.35;3.05;;;;;;;4.27;58.88;99534.47;4897129;29;19943;-85
2022/11/01 18:06:33;;;;;;;16.23;3.47;;;;;;;4.20;59.23;99523.09;4895785;29;20055;-85
2022/11/01 18:08:59;;;;;;;;;;;;;;;4.49;59.18;99572.16;4911888;29;20047;-85
2022/11/01 18:11:44;;;;;;;8.30;3.90;;;;;;;4.24;59.43;99525.03;4878440;29;20018;-85
2022/11/01 18:14:48;;;;;;;11.25;3.40;;;;;;;4.65;59.55;99575.75;4890000;29;20071;-86
2022/11/01 18:17:34;;;;;;;18.17;4.47;;;;;;;4.59;59.08;99558.66;4892319;29;20045;-85
2022/11/01 18:20:22;;;;;;;;;;;;;;;4.75;58.80;99567.63;4890043;29;20068;-86
2022/11/01 18:23:04;;;;;;;12.48;5.13;;;;;;;4.42;59.66;99558.09;4896830;29;19930;-83
2022/11/01 18:25:32;;;;;;;11.43;3.75;;;;;;;4.54;59.59;99568.69;4879468;29;20133;-86
2022/11/01 18:28:09;;;;;;;16.40;4.07;;;;;;;4.42;59.63;99531.81;4891288;29;20414;-87
2022/11/01 18:30:36;;;;;;;16.73;3.78;;;;;;;4.72;58.81;99560.03;4897654;29;20048;-89
2022/11/01 18:33:18;;;;;;;13.45;3.38;;;;;;;4.51;59.13;99542.94;4883256;29;20052;-87
2022/11/01 18:36:03;;;;;;;13.38;3.65;;;;;;;4.50;60.01;99567.56;4899030;29;20040;-87
2022/11/01 18:39:14;;;;;;;25.98;4.68;;;;;;;4.52;59.60;99558.09;4898171;29;20044;-86
2022/11/01 18:41:44;;;;;;;14.02;4.35;;;;;;;4.39;59.45;99520.72;4871205;29;20518;-86
2022/11/01 18:44:13;;;;;;;14.35;3.97;;;;;;;4.75;59.33;99551.38;4912878;29;20052;-88
2022/11/01 18:47:00;;;;;;;22.63;4.32;;;;;;;4.81;59.18;99547.59;4897514;29;20036;-86
2022/11/01 18:49:26;;;;;;;16.90;4.00;;;;;;;4.91;58.80;99572.00;4880290;29;20052;-87
2022/11/01 18:51:54;;;;;;;18.48;4.38;;;;;;;4.64;58.94;99549.75;4890317;29;20045;-87
2022/11/01 18:54:29;;;;;;;26.83;5.18;;;;;;;4.74;59.02;99554.38;4900761;29;20048;-91
2022/11/01 18:57:06;;;;;;;23.42;3.95;;;;;;;4.86;58.71;99558.44;4893836;29;20036;-86
2022/11/01 18:59:37;;;;;;;21.33;5.72;;;;;;;4.88;58.45;99555.47;4895488;29;20044;-87
2022/11/01 19:02:21;;;;;;;18.60;4.40;;;;;;;4.73;58.71;99531.88;4896154;29;20082;-89
2022/11/01 19:04:51;;;;;;;14.13;4.43;;;;;;;4.91;59.21;99572.00;4880406;29;20052;-89
2022/11/01 19:07:21;;;;;;;30.35;4.85;;;;;;;5.03;58.98;99566.28;4887151;29;20428;-91
2022/11/01 19:10:00;;;;;;;17.27;4.00;;;;;;;5.08;58.75;99570.94;4896659;29;20055;-89
2022/11/01 19:12:32;;;;;;;14.27;3.60;;;;;;;5.09;59.12;99564.41;4896908;29;20087;-89